createdAt,value
2019-01-26T00:01:15.785Z,86.30
2019-01-26T00:06:21.188Z,86.50
2019-01-26T00:11:26.506Z,86.90
2019-01-26T00:16:31.813Z,86.80
2019-01-26T00:21:37.164Z,86.90
2019-01-26T00:26:42.508Z,87.00
2019-01-26T00:31:47.807Z,87.20
2019-01-26T00:36:53.116Z,88.40
2019-01-26T00:41:58.410Z,87.60
2019-01-26T00:47:03.721Z,87.70
2019-01-26T00:52:09.031Z,87.80
2019-01-26T00:57:14.532Z,87.90
2019-01-26T01:02:19.814Z,88.20
2019-01-26T01:07:25.264Z,88.30
2019-01-26T01:12:30.747Z,88.30
2019-01-26T01:17:36.097Z,88.70
2019-01-26T01:22:41.388Z,88.90
2019-01-26T01:27:46.732Z,89.10
2019-01-26T01:32:52.189Z,89.00
2019-01-26T01:37:57.496Z,89.30
2019-01-26T01:43:02.838Z,88.80
2019-01-26T01:48:08.177Z,88.80
2019-01-26T01:53:13.523Z,89.00
2019-01-26T01:58:18.943Z,89.50
2019-01-26T02:03:24.379Z,89.30
2019-01-26T02:08:29.724Z,89.60
2019-01-26T02:13:35.037Z,90.00
2019-01-26T02:18:40.379Z,89.90
2019-01-26T02:23:45.697Z,90.30
2019-01-26T02:28:52.700Z,90.00
2019-01-26T02:33:58.104Z,90.10
2019-01-26T02:39:06.466Z,90.10
2019-01-26T02:44:12.096Z,90.10
2019-01-26T02:49:17.682Z,90.00
2019-01-26T02:54:23.007Z,90.20
2019-01-26T02:59:28.531Z,90.50
2019-01-26T03:04:33.836Z,90.20
2019-01-26T03:09:39.147Z,90.10
2019-01-26T03:14:44.520Z,89.90
2019-01-26T03:19:49.879Z,90.00
2019-01-26T03:24:55.203Z,90.00
2019-01-26T03:30:00.567Z,90.00
2019-01-26T03:35:06.829Z,89.90
2019-01-26T03:40:14.027Z,89.60
2019-01-26T03:45:19.875Z,89.60
2019-01-26T03:50:25.673Z,89.60
2019-01-26T03:55:31.371Z,89.70
2019-01-26T04:00:36.845Z,89.80
2019-01-26T04:05:42.567Z,89.80
2019-01-26T04:10:47.950Z,89.70
2019-01-26T04:15:53.280Z,89.90
2019-01-26T04:20:58.840Z,89.80
2019-01-26T04:26:04.492Z,89.80
2019-01-26T04:31:09.829Z,90.00
2019-01-26T04:36:15.364Z,90.00
2019-01-26T04:41:20.861Z,90.00
2019-01-26T04:46:26.338Z,89.90
2019-01-26T04:51:31.712Z,90.00
2019-01-26T04:56:37.077Z,89.90
2019-01-26T05:01:42.416Z,90.10
2019-01-26T05:06:47.779Z,90.10
2019-01-26T05:11:53.124Z,90.10
2019-01-26T05:16:58.463Z,90.00
2019-01-26T05:22:03.777Z,90.00
2019-01-26T05:27:09.170Z,89.90
2019-01-26T05:32:14.501Z,90.10
2019-01-26T05:37:19.790Z,90.10
2019-01-26T05:42:25.124Z,90.20
2019-01-26T05:47:30.513Z,90.10
2019-01-26T05:52:35.889Z,90.10
2019-01-26T05:57:41.242Z,90.10
2019-01-26T06:02:46.599Z,90.10
2019-01-26T06:07:51.961Z,90.00
2019-01-26T06:12:58.850Z,90.10
2019-01-26T06:18:04.456Z,90.10
2019-01-26T06:23:09.758Z,90.00
2019-01-26T06:28:15.064Z,90.00
2019-01-26T06:33:20.392Z,90.00
2019-01-26T06:38:25.715Z,90.00
2019-01-26T06:43:31.033Z,89.60
2019-01-26T06:48:36.341Z,89.60
2019-01-26T06:53:41.684Z,89.60
2019-01-26T06:58:47.019Z,89.50
2019-01-26T07:03:52.399Z,89.30
2019-01-26T07:08:57.739Z,89.30
2019-01-26T07:14:03.080Z,89.10
2019-01-26T07:19:08.541Z,89.10
2019-01-26T07:24:13.891Z,89.20
2019-01-26T07:29:19.251Z,89.10
2019-01-26T07:34:24.739Z,89.30
2019-01-26T07:39:30.172Z,89.20
2019-01-26T07:44:35.500Z,89.30
2019-01-26T07:49:40.931Z,89.20
2019-01-26T07:54:46.311Z,89.00
2019-01-26T07:59:51.741Z,88.90
2019-01-26T08:04:57.104Z,88.70
2019-01-26T08:10:02.569Z,88.80
2019-01-26T08:15:10.695Z,88.50
2019-01-26T08:20:18.727Z,88.40
2019-01-26T08:25:24.308Z,88.20
2019-01-26T08:30:29.648Z,88.30
2019-01-26T08:35:35.048Z,88.20
2019-01-26T08:40:40.385Z,88.10
2019-01-26T08:45:45.764Z,88.00
2019-01-26T08:50:51.081Z,88.00
2019-01-26T08:55:56.418Z,87.70
2019-01-26T09:01:01.779Z,87.80
2019-01-26T09:06:26.217Z,87.70
2019-01-26T09:11:31.542Z,87.60
2019-01-26T09:16:36.861Z,87.50
2019-01-26T09:21:42.227Z,87.20
2019-01-26T09:26:47.666Z,86.70
2019-01-26T09:31:53.082Z,86.50
2019-01-26T09:36:58.506Z,86.80
2019-01-26T09:42:03.853Z,86.10
2019-01-26T09:47:09.189Z,85.80
2019-01-26T09:52:14.606Z,85.50
2019-01-26T09:57:20.083Z,85.20
2019-01-26T10:02:25.784Z,84.60
2019-01-26T10:07:31.093Z,84.20
2019-01-26T10:12:36.445Z,83.50
2019-01-26T10:17:45.999Z,82.80
2019-01-26T10:22:50.838Z,82.80
2019-01-26T10:27:56.327Z,82.20
2019-01-26T10:33:01.909Z,82.10
2019-01-26T10:38:07.333Z,82.00
2019-01-26T10:43:14.007Z,81.90
2019-01-26T10:48:19.334Z,81.60
2019-01-26T10:53:24.665Z,81.80
2019-01-26T10:58:30.032Z,82.00
2019-01-26T11:03:35.436Z,82.00
2019-01-26T11:08:40.941Z,81.50
2019-01-26T11:13:46.276Z,81.40
2019-01-26T11:18:51.693Z,80.60
2019-01-26T11:23:57.088Z,80.40
2019-01-26T11:29:02.495Z,80.10
2019-01-26T11:34:07.910Z,80.10
2019-01-26T11:39:13.349Z,80.00
2019-01-26T11:44:18.847Z,80.30
2019-01-26T11:49:24.171Z,80.10
2019-01-26T11:54:29.554Z,79.50
2019-01-26T11:59:34.891Z,78.80
2019-01-26T12:04:59.262Z,77.80
2019-01-26T12:10:05.429Z,76.20
2019-01-26T12:15:14.266Z,76.70
2019-01-26T12:20:19.654Z,76.60
2019-01-26T12:25:25.128Z,75.90
2019-01-26T12:30:30.526Z,75.10
2019-01-26T12:35:35.959Z,74.00
2019-01-26T12:40:41.352Z,74.60
2019-01-26T12:45:46.679Z,75.40
2019-01-26T12:50:52.111Z,76.30
2019-01-26T12:55:57.445Z,77.20
2019-01-26T13:01:02.842Z,77.60
2019-01-26T13:06:08.246Z,77.60
2019-01-26T13:11:25.987Z,78.00
2019-01-26T13:16:31.335Z,78.10
2019-01-26T13:21:36.746Z,78.30
2019-01-26T13:26:42.077Z,78.30
2019-01-26T13:31:47.401Z,78.30
2019-01-26T13:36:52.913Z,78.20
2019-01-26T13:41:58.351Z,77.80
2019-01-26T13:47:03.864Z,77.50
2019-01-26T13:52:09.196Z,77.30
2019-01-26T13:57:14.516Z,77.10
2019-01-26T14:02:19.890Z,76.60
2019-01-26T14:07:25.280Z,76.10
2019-01-26T14:12:30.589Z,76.70
2019-01-26T14:17:35.921Z,76.30
2019-01-26T14:22:41.360Z,76.00
2019-01-26T14:27:46.727Z,75.80
2019-01-26T14:32:52.667Z,76.00
2019-01-26T14:37:58.212Z,76.10
2019-01-26T14:43:03.584Z,75.90
2019-01-26T14:48:08.919Z,76.00
2019-01-26T14:53:14.559Z,75.60
2019-01-26T14:58:19.968Z,75.10
2019-01-26T15:03:25.285Z,75.10
2019-01-26T15:08:30.706Z,75.10
2019-01-26T15:13:36.111Z,75.40
2019-01-26T15:18:41.608Z,75.60
2019-01-26T15:23:46.944Z,75.80
2019-01-26T15:28:52.334Z,76.00
2019-01-26T15:33:57.780Z,76.20
2019-01-26T15:39:04.978Z,76.30
2019-01-26T15:44:10.313Z,76.30
2019-01-26T15:49:15.602Z,76.30
2019-01-26T15:54:20.890Z,76.40
2019-01-26T15:59:26.227Z,76.50
2019-01-26T16:04:31.740Z,76.50
2019-01-26T16:09:37.074Z,76.50
2019-01-26T16:14:42.406Z,76.40
2019-01-26T16:19:47.724Z,76.50
2019-01-26T16:24:53.074Z,77.00
2019-01-26T16:29:58.420Z,77.30
2019-01-26T16:35:03.738Z,77.50
2019-01-26T16:40:12.743Z,77.90
2019-01-26T16:45:22.038Z,78.00
2019-01-26T16:50:29.326Z,78.20
2019-01-26T16:55:34.724Z,78.40
2019-01-26T17:00:46.580Z,78.40
2019-01-26T17:05:52.017Z,78.40
2019-01-26T17:10:57.336Z,78.30
2019-01-26T17:16:02.682Z,78.30
2019-01-26T17:21:08.008Z,78.40
2019-01-26T17:26:13.368Z,78.40
2019-01-26T17:31:18.694Z,78.50
2019-01-26T17:36:24.041Z,78.60
2019-01-26T17:41:29.405Z,78.80
2019-01-26T17:46:34.771Z,78.80
2019-01-26T17:51:40.378Z,78.90
2019-01-26T17:56:45.715Z,78.90
2019-01-26T18:01:51.050Z,78.80
2019-01-26T18:06:56.467Z,78.70
2019-01-26T18:12:01.865Z,78.60
2019-01-26T18:17:07.820Z,78.40
2019-01-26T18:22:13.142Z,78.30
2019-01-26T18:27:18.489Z,78.20
2019-01-26T18:32:23.856Z,78.20
2019-01-26T18:37:29.207Z,78.10
2019-01-26T18:42:34.526Z,78.00
2019-01-26T18:47:39.935Z,77.90
2019-01-26T18:52:45.259Z,77.80
2019-01-26T18:57:50.539Z,77.70
2019-01-26T19:03:31.279Z,77.60
2019-01-26T19:08:36.619Z,77.50
2019-01-26T19:13:41.932Z,77.40
2019-01-26T19:18:47.287Z,77.10
2019-01-26T19:23:52.622Z,76.90
2019-01-26T19:28:57.921Z,76.90
2019-01-26T19:34:03.284Z,76.70
2019-01-26T19:39:09.443Z,76.80
2019-01-26T19:44:14.870Z,76.80
2019-01-26T19:49:20.185Z,76.80
2019-01-26T19:54:25.494Z,76.80
2019-01-26T19:59:30.816Z,76.70
2019-01-26T20:04:36.167Z,76.80
2019-01-26T20:09:41.502Z,76.70
2019-01-26T20:14:46.866Z,76.60
2019-01-26T20:19:52.259Z,76.70
2019-01-26T20:24:57.620Z,76.70
2019-01-26T20:30:02.920Z,76.60
2019-01-26T20:35:08.305Z,76.60
2019-01-26T20:40:15.731Z,76.70
2019-01-26T20:45:26.778Z,76.80
2019-01-26T20:50:32.156Z,76.90
2019-01-26T20:55:37.531Z,77.00
2019-01-26T21:00:42.869Z,77.90
2019-01-26T21:05:48.227Z,77.10
2019-01-26T21:10:53.571Z,77.20
2019-01-26T21:15:58.966Z,77.40
2019-01-26T21:21:04.316Z,77.40
2019-01-26T21:26:09.717Z,77.40
2019-01-26T21:31:15.028Z,77.40
2019-01-26T21:36:20.644Z,77.40
2019-01-26T21:41:25.960Z,77.60
2019-01-26T21:46:31.247Z,77.70
2019-01-26T21:51:39.143Z,78.00
2019-01-26T21:56:43.686Z,78.00
2019-01-26T22:01:49.016Z,78.20
2019-01-26T22:06:54.415Z,78.30
2019-01-26T22:11:59.719Z,78.40
2019-01-26T22:17:05.027Z,78.40
2019-01-26T22:22:10.404Z,78.40
2019-01-26T22:27:15.832Z,78.40
2019-01-26T22:32:21.159Z,79.30
2019-01-26T22:37:26.569Z,78.50
2019-01-26T22:42:31.876Z,78.80
2019-01-26T22:47:37.204Z,78.60
2019-01-26T22:52:42.551Z,78.70
2019-01-26T22:57:48.840Z,78.70
2019-01-26T23:02:58.558Z,78.80
2019-01-26T23:08:31.251Z,78.80
2019-01-26T23:13:55.208Z,78.80
2019-01-26T23:19:58.363Z,79.00
2019-01-26T23:25:39.071Z,79.10
2019-01-26T23:31:12.519Z,79.10
2019-01-26T23:36:18.047Z,79.40
2019-01-26T23:41:23.395Z,79.40
2019-01-26T23:46:28.683Z,79.30
2019-01-26T23:51:33.981Z,79.40
2019-01-26T23:56:39.308Z,79.50
